sensor_id;sensor_type;location;lat;lon;timestamp;pressure;altitude;pressure_sealevel;temperature;humidity
68137;BME280;54939;50.826;9.030;2023-04-27T00:00:04;98895.56;;;14.33;51.60
68137;BME280;54939;50.826;9.030;2023-04-27T00:00:40;98896.41;;;14.34;51.71
68137;BME280;54939;50.826;9.030;2023-04-27T00:01:10;98894.56;;;14.34;51.68
68137;BME280;54939;50.826;9.030;2023-04-27T00:01:41;98898.28;;;14.33;51.56
68137;BME280;54939;50.826;9.030;2023-04-27T00:02:11;98889.22;;;14.34;51.43
68137;BME280;54939;50.826;9.030;2023-04-27T00:02:41;98893.75;;;14.34;51.46
68137;BME280;54939;50.826;9.030;2023-04-27T00:03:11;98893.75;;;14.34;51.52
68137;BME280;54939;50.826;9.030;2023-04-27T00:03:42;98893.91;;;14.32;51.37
68137;BME280;54939;50.826;9.030;2023-04-27T00:04:12;98888.53;;;14.32;51.43
68137;BME280;54939;50.826;9.030;2023-04-27T00:04:43;98894.75;;;14.33;51.30
68137;BME280;54939;50.826;9.030;2023-04-27T00:05:13;98898.44;;;14.32;51.36
68137;BME280;54939;50.826;9.030;2023-04-27T00:05:43;98900.09;;;14.33;51.38
68137;BME280;54939;50.826;9.030;2023-04-27T00:06:13;98897.44;;;14.33;51.40
68137;BME280;54939;50.826;9.030;2023-04-27T00:06:44;98892.06;;;14.33;51.84
68137;BME280;54939;50.826;9.030;2023-04-27T00:07:14;98892.06;;;14.33;51.42
68137;BME280;54939;50.826;9.030;2023-04-27T00:07:44;98891.22;;;14.32;51.64
68137;BME280;54939;50.826;9.030;2023-04-27T00:08:15;98894.75;;;14.33;51.46
68137;BME280;54939;50.826;9.030;2023-04-27T00:08:45;98894.75;;;14.33;51.55
68137;BME280;54939;50.826;9.030;2023-04-27T00:09:15;98891.22;;;14.32;51.68
68137;BME280;54939;50.826;9.030;2023-04-27T00:09:45;98894.75;;;14.33;51.59
68137;BME280;54939;50.826;9.030;2023-04-27T00:10:16;98889.38;;;14.33;51.63
68137;BME280;54939;50.826;9.030;2023-04-27T00:10:46;98889.38;;;14.33;51.54
68137;BME280;54939;50.826;9.030;2023-04-27T00:11:16;98886.69;;;14.33;51.46
68137;BME280;54939;50.826;9.030;2023-04-27T00:11:46;98889.38;;;14.33;51.67
68137;BME280;54939;50.826;9.030;2023-04-27T00:12:16;98883.16;;;14.32;51.57
68137;BME280;54939;50.826;9.030;2023-04-27T00:12:46;98885.84;;;14.32;51.44
68137;BME280;54939;50.826;9.030;2023-04-27T00:13:17;98893.06;;;14.32;51.35
68137;BME280;54939;50.826;9.030;2023-04-27T00:13:47;98886.69;;;14.33;51.59
68137;BME280;54939;50.826;9.030;2023-04-27T00:14:17;98884.00;;;14.33;51.52
68137;BME280;54939;50.826;9.030;2023-04-27T00:14:47;98884.00;;;14.33;51.27
68137;BME280;54939;50.826;9.030;2023-04-27T00:15:17;98888.53;;;14.32;51.22
68137;BME280;54939;50.826;9.030;2023-04-27T00:15:48;98886.69;;;14.33;51.39
68137;BME280;54939;50.826;9.030;2023-04-27T00:16:18;98881.31;;;14.33;51.49
68137;BME280;54939;50.826;9.030;2023-04-27T00:16:48;98882.16;;;14.33;51.39
68137;BME280;54939;50.826;9.030;2023-04-27T00:17:18;98884.84;;;14.33;51.50
68137;BME280;54939;50.826;9.030;2023-04-27T00:17:48;98891.03;;;14.34;51.61
68137;BME280;54939;50.826;9.030;2023-04-27T00:18:19;98884.84;;;14.33;51.71
68137;BME280;54939;50.826;9.030;2023-04-27T00:18:49;98882.16;;;14.33;51.48
68137;BME280;54939;50.826;9.030;2023-04-27T00:19:19;98874.25;;;14.32;51.62
68137;BME280;54939;50.826;9.030;2023-04-27T00:19:50;98886.69;;;14.33;51.55
68137;BME280;54939;50.826;9.030;2023-04-27T00:20:21;98886.69;;;14.33;51.31
68137;BME280;54939;50.826;9.030;2023-04-27T00:20:51;98887.53;;;14.33;51.53
68137;BME280;54939;50.826;9.030;2023-04-27T00:21:21;98884.00;;;14.33;51.42
68137;BME280;54939;50.826;9.030;2023-04-27T00:21:51;98883.16;;;14.32;51.42
68137;BME280;54939;50.826;9.030;2023-04-27T00:22:21;98881.16;;;14.34;51.50
68137;BME280;54939;50.826;9.030;2023-04-27T00:22:52;98880.47;;;14.32;51.58
68137;BME280;54939;50.826;9.030;2023-04-27T00:23:22;98882.16;;;14.33;51.46
68137;BME280;54939;50.826;9.030;2023-04-27T00:23:53;98877.78;;;14.32;51.62
68137;BME280;54939;50.826;9.030;2023-04-27T00:24:23;98878.63;;;14.33;51.52
68137;BME280;54939;50.826;9.030;2023-04-27T00:24:53;98875.94;;;14.33;51.58
68137;BME280;54939;50.826;9.030;2023-04-27T00:25:23;98878.63;;;14.33;51.42
68137;BME280;54939;50.826;9.030;2023-04-27T00:25:53;98873.25;;;14.33;51.39
68137;BME280;54939;50.826;9.030;2023-04-27T00:26:23;98880.47;;;14.32;51.55
68137;BME280;54939;50.826;9.030;2023-04-27T00:26:54;98870.56;;;14.33;51.31
68137;BME280;54939;50.826;9.030;2023-04-27T00:27:24;98871.41;;;14.33;51.45
68137;BME280;54939;50.826;9.030;2023-04-27T00:27:54;98875.09;;;14.32;51.38
68137;BME280;54939;50.826;9.030;2023-04-27T00:28:24;98872.41;;;14.32;51.43
68137;BME280;54939;50.826;9.030;2023-04-27T00:28:55;98872.41;;;14.32;51.52
68137;BME280;54939;50.826;9.030;2023-04-27T00:29:25;98871.41;;;14.33;51.30
68137;BME280;54939;50.826;9.030;2023-04-27T00:29:55;98876.78;;;14.33;51.55
68137;BME280;54939;50.826;9.030;2023-04-27T00:30:25;98869.72;;;14.32;51.42
68137;BME280;54939;50.826;9.030;2023-04-27T00:30:56;98874.94;;;14.34;51.60
68137;BME280;54939;50.826;9.030;2023-04-27T00:31:26;98877.78;;;14.32;51.44
68137;BME280;54939;50.826;9.030;2023-04-27T00:31:56;98873.25;;;14.33;51.34
68137;BME280;54939;50.826;9.030;2023-04-27T00:32:26;98867.03;;;14.32;51.67
68137;BME280;54939;50.826;9.030;2023-04-27T00:32:56;98873.25;;;14.33;51.48
68137;BME280;54939;50.826;9.030;2023-04-27T00:33:26;98869.72;;;14.32;51.63
68137;BME280;54939;50.826;9.030;2023-04-27T00:33:57;98874.09;;;14.33;51.31
68137;BME280;54939;50.826;9.030;2023-04-27T00:34:27;98870.56;;;14.33;51.35
68137;BME280;54939;50.826;9.030;2023-04-27T00:34:57;98873.25;;;14.33;51.17
68137;BME280;54939;50.826;9.030;2023-04-27T00:35:27;98870.56;;;14.33;51.31
68137;BME280;54939;50.826;9.030;2023-04-27T00:36:01;98869.72;;;14.32;51.47
68137;BME280;54939;50.826;9.030;2023-04-27T00:36:33;98865.19;;;14.33;51.25
68137;BME280;54939;50.826;9.030;2023-04-27T00:37:04;98861.03;;;14.30;51.46
68137;BME280;54939;50.826;9.030;2023-04-27T00:37:34;98867.03;;;14.32;51.58
68137;BME280;54939;50.826;9.030;2023-04-27T00:38:04;98859.00;;;14.32;51.34
68137;BME280;54939;50.826;9.030;2023-04-27T00:38:35;98869.72;;;14.32;51.14
68137;BME280;54939;50.826;9.030;2023-04-27T00:39:05;98864.34;;;14.32;51.43
68137;BME280;54939;50.826;9.030;2023-04-27T00:39:35;98859.00;;;14.32;51.53
68137;BME280;54939;50.826;9.030;2023-04-27T00:40:05;98865.19;;;14.33;51.61
68137;BME280;54939;50.826;9.030;2023-04-27T00:40:37;98862.72;;;14.31;51.52
68137;BME280;54939;50.826;9.030;2023-04-27T00:41:07;98868.72;;;14.33;51.35
68137;BME280;54939;50.826;9.030;2023-04-27T00:41:38;98868.88;;;14.32;51.41
68137;BME280;54939;50.826;9.030;2023-04-27T00:42:11;98861.69;;;14.32;51.37
68137;BME280;54939;50.826;9.030;2023-04-27T00:42:44;98861.69;;;14.32;51.37
68137;BME280;54939;50.826;9.030;2023-04-27T00:43:14;98862.50;;;14.33;51.38
68137;BME280;54939;50.826;9.030;2023-04-27T00:43:44;98865.19;;;14.33;51.42
68137;BME280;54939;50.826;9.030;2023-04-27T00:44:24;98862.50;;;14.33;51.33
68137;BME280;54939;50.826;9.030;2023-04-27T00:44:56;98859.81;;;14.33;51.19
68137;BME280;54939;50.826;9.030;2023-04-27T00:45:26;98864.34;;;14.32;51.15
68137;BME280;54939;50.826;9.030;2023-04-27T00:45:57;98859.00;;;14.32;51.34
68137;BME280;54939;50.826;9.030;2023-04-27T00:46:28;98865.19;;;14.33;51.41
68137;BME280;54939;50.826;9.030;2023-04-27T00:46:58;98861.50;;;14.34;51.50
68137;BME280;54939;50.826;9.030;2023-04-27T00:47:28;98859.81;;;14.33;51.63
68137;BME280;54939;50.826;9.030;2023-04-27T00:47:58;98864.34;;;14.32;51.51
68137;BME280;54939;50.826;9.030;2023-04-27T00:48:29;98859.00;;;14.32;51.52
68137;BME280;54939;50.826;9.030;2023-04-27T00:48:59;98865.19;;;14.33;51.55
68137;BME280;54939;50.826;9.030;2023-04-27T00:49:30;98853.63;;;14.32;51.36
68137;BME280;54939;50.826;9.030;2023-04-27T00:50:01;98862.72;;;14.31;51.22
68137;BME280;54939;50.826;9.030;2023-04-27T00:50:32;98859.00;;;14.32;51.26
68137;BME280;54939;50.826;9.030;2023-04-27T00:51:03;98865.19;;;14.33;51.24
68137;BME280;54939;50.826;9.030;2023-04-27T00:51:33;98861.69;;;14.32;51.51
68137;BME280;54939;50.826;9.030;2023-04-27T00:52:04;98859.81;;;14.33;51.54
68137;BME280;54939;50.826;9.030;2023-04-27T00:52:35;98859.81;;;14.33;51.41
68137;BME280;54939;50.826;9.030;2023-04-27T00:53:05;98864.34;;;14.32;51.13
68137;BME280;54939;50.826;9.030;2023-04-27T00:53:36;98861.69;;;14.32;51.21
68137;BME280;54939;50.826;9.030;2023-04-27T00:54:06;98867.03;;;14.32;51.27
68137;BME280;54939;50.826;9.030;2023-04-27T00:54:37;98869.72;;;14.32;51.31
68137;BME280;54939;50.826;9.030;2023-04-27T00:55:07;98868.09;;;14.31;51.13
68137;BME280;54939;50.826;9.030;2023-04-27T00:55:38;98867.03;;;14.32;51.33
68137;BME280;54939;50.826;9.030;2023-04-27T00:56:08;98865.41;;;14.31;51.25
68137;BME280;54939;50.826;9.030;2023-04-27T00:56:38;98863.53;;;14.32;51.29
68137;BME280;54939;50.826;9.030;2023-04-27T00:57:09;98864.34;;;14.32;51.37
68137;BME280;54939;50.826;9.030;2023-04-27T00:57:39;98870.56;;;14.33;51.24
68137;BME280;54939;50.826;9.030;2023-04-27T00:58:09;98869.72;;;14.32;51.23
68137;BME280;54939;50.826;9.030;2023-04-27T00:58:39;98864.34;;;14.32;51.21
68137;BME280;54939;50.826;9.030;2023-04-27T00:59:09;98863.53;;;14.32;51.18
68137;BME280;54939;50.826;9.030;2023-04-27T00:59:40;98866.22;;;14.32;51.25
68137;BME280;54939;50.826;9.030;2023-04-27T01:00:10;98860.84;;;14.32;51.38
68137;BME280;54939;50.826;9.030;2023-04-27T01:00:40;98862.72;;;14.31;51.31
68137;BME280;54939;50.826;9.030;2023-04-27T01:01:10;98864.34;;;14.32;51.13
68137;BME280;54939;50.826;9.030;2023-04-27T01:01:41;98867.03;;;14.32;51.26
68137;BME280;54939;50.826;9.030;2023-04-27T01:02:11;98866.22;;;14.32;50.87
68137;BME280;54939;50.826;9.030;2023-04-27T01:02:42;98866.22;;;14.32;51.25
68137;BME280;54939;50.826;9.030;2023-04-27T01:03:12;98868.88;;;14.32;51.15
68137;BME280;54939;50.826;9.030;2023-04-27T01:03:42;98871.56;;;14.32;51.26
68137;BME280;54939;50.826;9.030;2023-04-27T01:04:13;98871.56;;;14.32;51.32
68137;BME280;54939;50.826;9.030;2023-04-27T01:04:43;98866.22;;;14.32;51.59
68137;BME280;54939;50.826;9.030;2023-04-27T01:05:13;98868.09;;;14.31;51.53
68137;BME280;54939;50.826;9.030;2023-04-27T01:05:44;98866.22;;;14.32;51.25
68137;BME280;54939;50.826;9.030;2023-04-27T01:06:14;98867.03;;;14.32;51.40
68137;BME280;54939;50.826;9.030;2023-04-27T01:06:44;98867.03;;;14.32;51.22
68137;BME280;54939;50.826;9.030;2023-04-27T01:07:15;98868.88;;;14.32;51.25
68137;BME280;54939;50.826;9.030;2023-04-27T01:07:45;98873.44;;;14.31;51.31
68137;BME280;54939;50.826;9.030;2023-04-27T01:08:15;98871.56;;;14.32;51.48
68137;BME280;54939;50.826;9.030;2023-04-27T01:08:45;98868.88;;;14.32;51.35
68137;BME280;54939;50.826;9.030;2023-04-27T01:09:16;98871.56;;;14.32;51.28
68137;BME280;54939;50.826;9.030;2023-04-27T01:09:48;98869.72;;;14.32;51.35
68137;BME280;54939;50.826;9.030;2023-04-27T01:10:19;98870.78;;;14.31;51.32
68137;BME280;54939;50.826;9.030;2023-04-27T01:10:49;98876.13;;;14.31;51.13
68137;BME280;54939;50.826;9.030;2023-04-27T01:11:19;98876.94;;;14.32;51.31
68137;BME280;54939;50.826;9.030;2023-04-27T01:11:51;98878.81;;;14.31;51.36
68137;BME280;54939;50.826;9.030;2023-04-27T01:12:21;98869.09;;;14.30;51.29
68137;BME280;54939;50.826;9.030;2023-04-27T01:12:51;98878.81;;;14.31;51.38
68137;BME280;54939;50.826;9.030;2023-04-27T01:13:21;98879.63;;;14.32;51.12
68137;BME280;54939;50.826;9.030;2023-04-27T01:13:51;98877.16;;;14.30;51.09
68137;BME280;54939;50.826;9.030;2023-04-27T01:14:22;98879.63;;;14.32;51.52
68137;BME280;54939;50.826;9.030;2023-04-27T01:14:52;98876.13;;;14.31;51.39
68137;BME280;54939;50.826;9.030;2023-04-27T01:15:23;98882.31;;;14.32;51.35
68137;BME280;54939;50.826;9.030;2023-04-27T01:15:53;98873.44;;;14.31;51.26
68137;BME280;54939;50.826;9.030;2023-04-27T01:16:23;98876.13;;;14.31;51.27
68137;BME280;54939;50.826;9.030;2023-04-27T01:16:53;98877.16;;;14.30;51.15
68137;BME280;54939;50.826;9.030;2023-04-27T01:17:23;98873.44;;;14.31;51.30
68137;BME280;54939;50.826;9.030;2023-04-27T01:17:57;98880.47;;;14.32;51.33
68137;BME280;54939;50.826;9.030;2023-04-27T01:18:27;98878.81;;;14.31;51.13
68137;BME280;54939;50.826;9.030;2023-04-27T01:18:58;98879.63;;;14.32;51.31
68137;BME280;54939;50.826;9.030;2023-04-27T01:19:28;98878.81;;;14.31;51.31
68137;BME280;54939;50.826;9.030;2023-04-27T01:19:58;98884.19;;;14.31;51.48
68137;BME280;54939;50.826;9.030;2023-04-27T01:20:29;98884.19;;;14.31;51.31
68137;BME280;54939;50.826;9.030;2023-04-27T01:20:59;98873.44;;;14.31;51.16
68137;BME280;54939;50.826;9.030;2023-04-27T01:21:29;98881.50;;;14.31;51.26
68137;BME280;54939;50.826;9.030;2023-04-27T01:21:59;98881.50;;;14.31;51.48
68137;BME280;54939;50.826;9.030;2023-04-27T01:22:30;98887.69;;;14.32;51.37
68137;BME280;54939;50.826;9.030;2023-04-27T01:23:00;98877.97;;;14.31;51.39
68137;BME280;54939;50.826;9.030;2023-04-27T01:23:30;98879.84;;;14.30;51.33
68137;BME280;54939;50.826;9.030;2023-04-27T01:24:02;98878.81;;;14.31;52.12
68137;BME280;54939;50.826;9.030;2023-04-27T01:24:32;98877.97;;;14.31;51.54
68137;BME280;54939;50.826;9.030;2023-04-27T01:25:03;98879.84;;;14.30;51.27
68137;BME280;54939;50.826;9.030;2023-04-27T01:25:33;98882.53;;;14.30;51.41
68137;BME280;54939;50.826;9.030;2023-04-27T01:26:03;98883.34;;;14.31;51.19
68137;BME280;54939;50.826;9.030;2023-04-27T01:26:33;98883.34;;;14.31;51.13
68137;BME280;54939;50.826;9.030;2023-04-27T01:27:03;98879.00;;;14.30;51.22
68137;BME280;54939;50.826;9.030;2023-04-27T01:27:33;98877.16;;;14.30;51.04
68137;BME280;54939;50.826;9.030;2023-04-27T01:28:04;98877.97;;;14.31;51.36
68137;BME280;54939;50.826;9.030;2023-04-27T01:28:34;98879.00;;;14.30;51.30
68137;BME280;54939;50.826;9.030;2023-04-27T01:29:04;98879.84;;;14.30;51.23
68137;BME280;54939;50.826;9.030;2023-04-27T01:29:35;98876.31;;;14.30;51.23
68137;BME280;54939;50.826;9.030;2023-04-27T01:30:05;98881.69;;;14.30;51.08
68137;BME280;54939;50.826;9.030;2023-04-27T01:30:35;98878.16;;;14.29;51.16
68137;BME280;54939;50.826;9.030;2023-04-27T01:31:06;98879.00;;;14.30;50.94
68137;BME280;54939;50.826;9.030;2023-04-27T01:31:36;98877.97;;;14.31;51.22
68137;BME280;54939;50.826;9.030;2023-04-27T01:32:06;98877.97;;;14.31;51.00
68137;BME280;54939;50.826;9.030;2023-04-27T01:32:36;98870.09;;;14.29;51.16
68137;BME280;54939;50.826;9.030;2023-04-27T01:33:07;98878.16;;;14.29;51.15
68137;BME280;54939;50.826;9.030;2023-04-27T01:33:38;98878.16;;;14.29;51.52
68137;BME280;54939;50.826;9.030;2023-04-27T01:34:08;98872.78;;;14.29;51.22
68137;BME280;54939;50.826;9.030;2023-04-27T01:34:38;98874.63;;;14.29;51.28
68137;BME280;54939;50.826;9.030;2023-04-27T01:35:08;98873.78;;;14.28;51.21
68137;BME280;54939;50.826;9.030;2023-04-27T01:35:39;98877.31;;;14.29;51.28
68137;BME280;54939;50.826;9.030;2023-04-27T01:36:09;98874.63;;;14.29;51.18
68137;BME280;54939;50.826;9.030;2023-04-27T01:36:40;98871.94;;;14.29;51.19
68137;BME280;54939;50.826;9.030;2023-04-27T01:37:10;98871.09;;;14.28;51.22
68137;BME280;54939;50.826;9.030;2023-04-27T01:37:40;98874.63;;;14.29;51.21
68137;BME280;54939;50.826;9.030;2023-04-27T01:38:10;98880.84;;;14.29;51.40
68137;BME280;54939;50.826;9.030;2023-04-27T01:38:41;98875.47;;;14.29;51.31
68137;BME280;54939;50.826;9.030;2023-04-27T01:39:11;98876.47;;;14.28;51.15
68137;BME280;54939;50.826;9.030;2023-04-27T01:39:41;98870.25;;;14.28;51.14
68137;BME280;54939;50.826;9.030;2023-04-27T01:40:12;98883.53;;;14.29;51.22
68137;BME280;54939;50.826;9.030;2023-04-27T01:40:42;98880.00;;;14.29;51.47
68137;BME280;54939;50.826;9.030;2023-04-27T01:41:12;98875.63;;;14.28;51.25
68137;BME280;54939;50.826;9.030;2023-04-27T01:41:42;98872.94;;;14.28;51.29
68137;BME280;54939;50.826;9.030;2023-04-27T01:42:13;98876.47;;;14.28;51.45
68137;BME280;54939;50.826;9.030;2023-04-27T01:42:43;98881.84;;;14.28;51.26
68137;BME280;54939;50.826;9.030;2023-04-27T01:43:13;98885.53;;;14.27;51.39
68137;BME280;54939;50.826;9.030;2023-04-27T01:43:43;98881.84;;;14.28;51.29
68137;BME280;54939;50.826;9.030;2023-04-27T01:44:13;98885.53;;;14.27;51.29
68137;BME280;54939;50.826;9.030;2023-04-27T01:44:43;98884.53;;;14.28;51.46
68137;BME280;54939;50.826;9.030;2023-04-27T01:45:14;98880.00;;;14.29;51.32
68137;BME280;54939;50.826;9.030;2023-04-27T01:45:44;98881.84;;;14.28;51.44
68137;BME280;54939;50.826;9.030;2023-04-27T01:46:14;98886.38;;;14.28;51.37
68137;BME280;54939;50.826;9.030;2023-04-27T01:46:45;98883.69;;;14.28;51.37
68137;BME280;54939;50.826;9.030;2023-04-27T01:47:15;98881.16;;;14.26;51.23
68137;BME280;54939;50.826;9.030;2023-04-27T01:47:46;98888.06;;;14.29;51.48
68137;BME280;54939;50.826;9.030;2023-04-27T01:48:16;98884.53;;;14.28;51.16
68137;BME280;54939;50.826;9.030;2023-04-27T01:48:46;98884.53;;;14.28;51.17
68137;BME280;54939;50.826;9.030;2023-04-27T01:49:16;98884.53;;;14.28;51.12
68137;BME280;54939;50.826;9.030;2023-04-27T01:49:46;98885.38;;;14.29;51.42
68137;BME280;54939;50.826;9.030;2023-04-27T01:50:17;98888.91;;;14.29;51.06
68137;BME280;54939;50.826;9.030;2023-04-27T01:50:47;98881.00;;;14.28;51.23
68137;BME280;54939;50.826;9.030;2023-04-27T01:51:17;98886.38;;;14.28;51.45
68137;BME280;54939;50.826;9.030;2023-04-27T01:51:47;98883.69;;;14.28;51.38
68137;BME280;54939;50.826;9.030;2023-04-27T01:52:17;98882.69;;;14.29;51.43
68137;BME280;54939;50.826;9.030;2023-04-27T01:52:48;98880.16;;;14.27;51.43
68137;BME280;54939;50.826;9.030;2023-04-27T01:53:18;98881.00;;;14.28;51.27
68137;BME280;54939;50.826;9.030;2023-04-27T01:53:48;98868.41;;;14.28;51.21
68137;BME280;54939;50.826;9.030;2023-04-27T01:54:18;98876.47;;;14.28;51.30
68137;BME280;54939;50.826;9.030;2023-04-27T01:54:48;98874.63;;;14.29;51.30
68137;BME280;54939;50.826;9.030;2023-04-27T01:55:18;98872.94;;;14.28;51.19
68137;BME280;54939;50.826;9.030;2023-04-27T01:55:49;98875.63;;;14.28;51.20
68137;BME280;54939;50.826;9.030;2023-04-27T01:56:19;98872.94;;;14.28;51.43
68137;BME280;54939;50.826;9.030;2023-04-27T01:56:49;98872.09;;;14.27;51.51
68137;BME280;54939;50.826;9.030;2023-04-27T01:57:20;98877.47;;;14.27;51.38
68137;BME280;54939;50.826;9.030;2023-04-27T01:57:50;98874.78;;;14.27;51.45
68137;BME280;54939;50.826;9.030;2023-04-27T01:58:20;98882.84;;;14.27;51.27
68137;BME280;54939;50.826;9.030;2023-04-27T01:58:51;98881.16;;;14.26;51.46
68137;BME280;54939;50.826;9.030;2023-04-27T01:59:21;98879.31;;;14.27;51.14
68137;BME280;54939;50.826;9.030;2023-04-27T01:59:52;98888.22;;;14.27;51.23
68137;BME280;54939;50.826;9.030;2023-04-27T02:00:22;98883.84;;;14.26;51.13
68137;BME280;54939;50.826;9.030;2023-04-27T02:00:52;98884.69;;;14.27;51.36
68137;BME280;54939;50.826;9.030;2023-04-27T02:01:22;98890.91;;;14.27;51.14
68137;BME280;54939;50.826;9.030;2023-04-27T02:01:53;98889.06;;;14.28;51.52
68137;BME280;54939;50.826;9.030;2023-04-27T02:02:23;98886.53;;;14.26;50.99
68137;BME280;54939;50.826;9.030;2023-04-27T02:02:53;98885.53;;;14.27;51.36
68137;BME280;54939;50.826;9.030;2023-04-27T02:03:26;98888.22;;;14.27;51.55
68137;BME280;54939;50.826;9.030;2023-04-27T02:03:56;98892.59;;;14.28;51.15
68137;BME280;54939;50.826;9.030;2023-04-27T02:04:26;98888.22;;;14.27;51.06
68137;BME280;54939;50.826;9.030;2023-04-27T02:04:56;98891.91;;;14.26;51.16
68137;BME280;54939;50.826;9.030;2023-04-27T02:05:26;98896.28;;;14.27;51.31
68137;BME280;54939;50.826;9.030;2023-04-27T02:05:57;98888.22;;;14.27;51.27
68137;BME280;54939;50.826;9.030;2023-04-27T02:06:27;98898.97;;;14.27;51.31
68137;BME280;54939;50.826;9.030;2023-04-27T02:06:57;98888.22;;;14.27;51.24
68137;BME280;54939;50.826;9.030;2023-04-27T02:07:27;98901.66;;;14.27;51.30
68137;BME280;54939;50.826;9.030;2023-04-27T02:07:57;98894.44;;;14.28;51.45
68137;BME280;54939;50.826;9.030;2023-04-27T02:08:27;98903.31;;;14.28;51.35
68137;BME280;54939;50.826;9.030;2023-04-27T02:08:57;98892.75;;;14.27;51.16
68137;BME280;54939;50.826;9.030;2023-04-27T02:09:28;98898.13;;;14.27;51.34
68137;BME280;54939;50.826;9.030;2023-04-27T02:09:58;98893.59;;;14.27;51.48
68137;BME280;54939;50.826;9.030;2023-04-27T02:10:28;98898.13;;;14.27;51.23
68137;BME280;54939;50.826;9.030;2023-04-27T02:10:58;98896.28;;;14.27;51.51
68137;BME280;54939;50.826;9.030;2023-04-27T02:11:28;98898.97;;;14.27;51.33
68137;BME280;54939;50.826;9.030;2023-04-27T02:11:58;98896.44;;;14.26;51.32
68137;BME280;54939;50.826;9.030;2023-04-27T02:12:29;98897.28;;;14.26;51.07
68137;BME280;54939;50.826;9.030;2023-04-27T02:12:59;98897.28;;;14.26;51.52
68137;BME280;54939;50.826;9.030;2023-04-27T02:13:29;98896.44;;;14.26;51.48
68137;BME280;54939;50.826;9.030;2023-04-27T02:13:59;98900.97;;;14.25;51.38
68137;BME280;54939;50.826;9.030;2023-04-27T02:14:30;98901.81;;;14.26;51.24
68137;BME280;54939;50.826;9.030;2023-04-27T02:15:00;98902.66;;;14.26;51.41
68137;BME280;54939;50.826;9.030;2023-04-27T02:15:30;98908.03;;;14.26;51.37
68137;BME280;54939;50.826;9.030;2023-04-27T02:16:00;98909.88;;;14.26;51.29
68137;BME280;54939;50.826;9.030;2023-04-27T02:16:33;98911.72;;;14.25;51.38
68137;BME280;54939;50.826;9.030;2023-04-27T02:17:03;98914.41;;;14.25;51.18
68137;BME280;54939;50.826;9.030;2023-04-27T02:17:33;98914.41;;;14.25;51.20
68137;BME280;54939;50.826;9.030;2023-04-27T02:18:03;98913.56;;;14.25;51.27
68137;BME280;54939;50.826;9.030;2023-04-27T02:18:34;98910.88;;;14.25;51.13
68137;BME280;54939;50.826;9.030;2023-04-27T02:19:05;98916.06;;;14.26;51.29
68137;BME280;54939;50.826;9.030;2023-04-27T02:19:35;98906.34;;;14.25;51.20
68137;BME280;54939;50.826;9.030;2023-04-27T02:20:05;98916.25;;;14.25;51.09
68137;BME280;54939;50.826;9.030;2023-04-27T02:20:36;98912.56;;;14.26;51.19
68137;BME280;54939;50.826;9.030;2023-04-27T02:21:09;98911.72;;;14.25;51.28
68137;BME280;54939;50.826;9.030;2023-04-27T02:21:39;98910.88;;;14.25;51.45
68137;BME280;54939;50.826;9.030;2023-04-27T02:22:10;98921.44;;;14.26;51.14
68137;BME280;54939;50.826;9.030;2023-04-27T02:22:40;98910.06;;;14.24;51.19
68137;BME280;54939;50.826;9.030;2023-04-27T02:23:12;98913.56;;;14.25;51.20
68137;BME280;54939;50.826;9.030;2023-04-27T02:23:42;98914.41;;;14.25;51.50
68137;BME280;54939;50.826;9.030;2023-04-27T02:24:13;98913.56;;;14.25;51.41
68137;BME280;54939;50.826;9.030;2023-04-27T02:24:43;98904.69;;;14.24;51.45
68137;BME280;54939;50.826;9.030;2023-04-27T02:25:13;98913.56;;;14.25;51.15
68137;BME280;54939;50.826;9.030;2023-04-27T02:25:43;98909.22;;;14.24;51.42
68137;BME280;54939;50.826;9.030;2023-04-27T02:26:16;98910.06;;;14.24;51.34
68137;BME280;54939;50.826;9.030;2023-04-27T02:26:47;98905.50;;;14.25;51.45
68137;BME280;54939;50.826;9.030;2023-04-27T02:27:17;98912.75;;;14.24;51.26
68137;BME280;54939;50.826;9.030;2023-04-27T02:27:47;98910.06;;;14.24;51.53
68137;BME280;54939;50.826;9.030;2023-04-27T02:28:17;98910.06;;;14.24;51.24
68137;BME280;54939;50.826;9.030;2023-04-27T02:28:47;98910.06;;;14.24;51.29
68137;BME280;54939;50.826;9.030;2023-04-27T02:29:19;98916.25;;;14.25;51.32
68137;BME280;54939;50.826;9.030;2023-04-27T02:29:49;98918.13;;;14.24;51.48
68137;BME280;54939;50.826;9.030;2023-04-27T02:30:19;98916.44;;;14.23;51.49
68137;BME280;54939;50.826;9.030;2023-04-27T02:30:50;98916.44;;;14.23;51.34
68137;BME280;54939;50.826;9.030;2023-04-27T02:31:20;98916.25;;;14.25;51.37
68137;BME280;54939;50.826;9.030;2023-04-27T02:31:50;98918.94;;;14.25;51.28
68137;BME280;54939;50.826;9.030;2023-04-27T02:32:21;98919.97;;;14.24;51.29
68137;BME280;54939;50.826;9.030;2023-04-27T02:32:51;98920.81;;;14.24;51.25
68137;BME280;54939;50.826;9.030;2023-04-27T02:33:21;98918.13;;;14.24;51.16
68137;BME280;54939;50.826;9.030;2023-04-27T02:33:51;98918.13;;;14.24;51.12
68137;BME280;54939;50.826;9.030;2023-04-27T02:34:22;98911.06;;;14.23;51.27
68137;BME280;54939;50.826;9.030;2023-04-27T02:34:52;98919.13;;;14.23;51.36
68137;BME280;54939;50.826;9.030;2023-04-27T02:35:22;98920.81;;;14.24;51.24
68137;BME280;54939;50.826;9.030;2023-04-27T02:35:52;98920.81;;;14.24;51.14
68137;BME280;54939;50.826;9.030;2023-04-27T02:36:22;98923.50;;;14.24;51.50
68137;BME280;54939;50.826;9.030;2023-04-27T02:36:53;98926.19;;;14.24;51.33
68137;BME280;54939;50.826;9.030;2023-04-27T02:37:23;98925.34;;;14.24;51.21
68137;BME280;54939;50.826;9.030;2023-04-27T02:37:53;98925.34;;;14.24;51.37
68137;BME280;54939;50.826;9.030;2023-04-27T02:38:23;98926.19;;;14.24;51.32
68137;BME280;54939;50.826;9.030;2023-04-27T02:38:53;98925.34;;;14.24;51.23
68137;BME280;54939;50.826;9.030;2023-04-27T02:39:24;98927.19;;;14.23;51.14
68137;BME280;54939;50.826;9.030;2023-04-27T02:39:54;98924.50;;;14.23;51.13
68137;BME280;54939;50.826;9.030;2023-04-27T02:40:24;98918.28;;;14.23;51.12
68137;BME280;54939;50.826;9.030;2023-04-27T02:40:54;98927.19;;;14.23;51.26